Time;durP1;ratioP1;P1;durP2;ratioP2;P2;SDS_P1;SDS_P2;PMS_P1;PMS_P2;Temp;Humidity;BMP_temperature;BMP_pressure;BME280_temperature;BME280_humidity;BME280_pressure;Samples;Min_cycle;Max_cycle;Signal;HPM_P1;HPM_P2
2022/12/12 00:01:25;;;;;;;73.13;32.10;;;;;;;-0.31;100.00;99841.63;5007283;28;20050;-69
2022/12/12 00:03:52;;;;;;;72.13;31.80;;;;;;;-0.27;100.00;99832.06;5006101;28;20471;-70
2022/12/12 00:06:21;;;;;;;69.95;31.15;;;;;;;-0.17;100.00;99839.75;5002089;28;20058;-73
2022/12/12 00:08:48;;;;;;;63.25;29.98;;;;;;;-0.30;100.00;99808.66;4998444;28;20050;-71
2022/12/12 00:11:14;;;;;;;64.97;30.20;;;;;;;-0.07;100.00;99841.34;5002435;28;20066;-71
2022/12/12 00:13:41;;;;;;;64.15;30.23;;;;;;;-0.26;100.00;99812.97;5004784;28;20149;-71
2022/12/12 00:16:08;;;;;;;64.30;30.10;;;;;;;-0.16;100.00;99840.63;5002334;28;20473;-71
2022/12/12 00:18:37;;;;;;;68.38;31.95;;;;;;;-0.14;100.00;99842.28;4996440;28;20053;-71
2022/12/12 00:21:10;;;;;;;66.43;31.10;;;;;;;-0.08;100.00;99846.56;5004001;28;20079;-71
2022/12/12 00:23:39;;;;;;;68.72;32.30;;;;;;;-0.06;100.00;99844.81;5006072;28;20049;-70
2022/12/12 00:26:10;;;;;;;69.82;32.28;;;;;;;-0.25;100.00;99812.09;5001024;28;20083;-74
2022/12/12 00:28:37;;;;;;;69.32;32.05;;;;;;;-0.04;100.00;99851.72;4992556;28;20770;-71
2022/12/12 00:31:03;;;;;;;63.70;30.88;;;;;;;-0.06;100.00;99837.00;5007901;28;20046;-72
2022/12/12 00:33:30;;;;;;;67.88;30.73;;;;;;;-0.27;100.00;99811.25;5006478;28;20064;-73
2022/12/12 00:35:57;;;;;;;69.65;31.45;;;;;;;-0.11;100.00;99847.47;4996021;28;20042;-73
2022/12/12 00:38:24;;;;;;;68.28;31.63;;;;;;;-0.16;100.00;99838.84;4996881;28;20471;-70
2022/12/12 00:40:55;;;;;;;67.38;29.80;;;;;;;-0.14;100.00;99844.88;4998110;28;20133;-73
2022/12/12 00:43:22;;;;;;;68.15;32.97;;;;;;;-0.13;100.00;99845.75;5000137;28;20046;-71
2022/12/12 00:45:49;;;;;;;72.50;33.75;;;;;;;-0.24;100.00;99845.03;5000013;28;20123;-72
2022/12/12 00:48:15;;;;;;;64.47;31.85;;;;;;;-0.29;100.00;99849.41;4994773;28;20054;-73
2022/12/12 00:50:42;;;;;;;69.18;31.55;;;;;;;-0.36;100.00;99841.69;5000035;28;20141;-72
2022/12/12 00:53:09;;;;;;;73.72;32.65;;;;;;;-0.30;100.00;99851.16;5003557;28;20050;-71
2022/12/12 00:55:36;;;;;;;71.72;31.75;;;;;;;-0.36;100.00;99846.91;5003889;28;20137;-70
2022/12/12 00:58:03;;;;;;;63.40;31.65;;;;;;;-0.25;100.00;99853.72;4988963;28;20046;-71
2022/12/12 01:00:29;;;;;;;67.38;33.17;;;;;;;-0.13;100.00;99853.56;5003390;28;20042;-73
2022/12/12 01:02:57;;;;;;;68.20;30.30;;;;;;;-0.06;100.00;99847.41;4999910;28;20042;-70
2022/12/12 01:05:25;;;;;;;64.38;30.65;;;;;;;0.07;100.00;99861.97;4999091;28;20065;-72
2022/12/12 01:07:51;;;;;;;67.35;30.77;;;;;;;0.06;100.00;99848.97;4996695;28;20413;-71
2022/12/12 01:10:18;;;;;;;63.78;30.40;;;;;;;0.08;100.00;99855.91;5003421;28;20050;-74
2022/12/12 01:12:45;;;;;;;68.22;30.52;;;;;;;0.02;100.00;99860.31;4994310;28;20060;-72
2022/12/12 01:15:11;;;;;;;62.40;30.65;;;;;;;0.10;100.00;99863.69;5002174;28;20056;-70
2022/12/12 01:17:40;;;;;;;64.47;29.60;;;;;;;0.11;100.00;99868.88;4989898;28;20418;-72
2022/12/12 01:20:19;;;;;;;61.45;30.30;;;;;;;0.03;100.00;99847.28;5001869;28;20034;-73
2022/12/12 01:22:47;;;;;;;66.35;30.98;;;;;;;0.18;100.00;99865.28;4996000;28;20077;-73
2022/12/12 01:25:15;;;;;;;68.07;31.42;;;;;;;0.10;100.00;99855.88;4999831;28;20586;-74
2022/12/12 01:27:42;;;;;;;64.43;29.45;;;;;;;-0.02;100.00;99830.88;4994656;28;20046;-73
2022/12/12 01:30:13;;;;;;;64.65;30.92;;;;;;;0.01;100.00;99838.63;5001669;28;20048;-72
2022/12/12 01:32:39;;;;;;;71.03;31.30;;;;;;;0.06;100.00;99859.41;5003986;28;20046;-72
2022/12/12 01:35:07;;;;;;;70.72;32.08;;;;;;;0.07;100.00;99859.38;4996152;28;20050;-71
2022/12/12 01:37:34;;;;;;;72.97;30.75;;;;;;;0.04;100.00;99845.53;4997512;28;20124;-71
2022/12/12 01:40:02;;;;;;;65.22;30.00;;;;;;;0.17;100.00;99866.19;4999252;28;20140;-70
2022/12/12 01:42:29;;;;;;;68.57;31.98;;;;;;;0.16;100.00;99864.44;4998402;28;20072;-73
2022/12/12 01:44:56;;;;;;;70.22;32.00;;;;;;;0.15;100.00;99865.38;5000023;28;20045;-73
2022/12/12 01:47:24;;;;;;;65.90;30.08;;;;;;;0.06;100.00;99860.25;4998565;28;20056;-72
2022/12/12 01:50:03;;;;;;;65.38;31.48;;;;;;;-0.14;100.00;99836.22;4996905;28;20058;-71
2022/12/12 01:52:37;;;;;;;68.43;31.02;;;;;;;0.07;100.00;99866.31;5004675;28;20046;-71
2022/12/12 01:55:06;;;;;;;68.32;31.27;;;;;;;0.12;100.00;99865.41;5001664;28;20082;-72
2022/12/12 01:57:36;;;;;;;68.78;31.45;;;;;;;0.00;100.00;99849.94;4994051;28;20252;-72
2022/12/12 02:00:07;;;;;;;70.72;31.15;;;;;;;-0.05;100.00;99836.97;4999997;28;20518;-73
2022/12/12 02:02:34;;;;;;;;;;;;;;;0.18;100.00;99867.03;5005080;28;20137;-77
2022/12/12 02:05:07;;;;;;;63.72;30.00;;;;;;;0.07;100.00;99859.38;5004804;28;19984;-71
2022/12/12 02:07:34;;;;;;;71.35;31.73;;;;;;;-0.03;100.00;99861.25;4994705;28;20065;-72
2022/12/12 02:10:01;;;;;;;76.32;34.10;;;;;;;-0.08;100.00;99867.38;4995125;28;20077;-70
2022/12/12 02:12:27;;;;;;;66.38;31.15;;;;;;;-0.10;100.00;99861.34;5000752;28;20087;-70
2022/12/12 02:14:54;;;;;;;69.03;31.73;;;;;;;-0.13;100.00;99879.59;5012593;28;20060;-73
2022/12/12 02:17:23;;;;;;;67.25;30.13;;;;;;;-0.05;100.00;99869.97;4994777;28;20046;-71
2022/12/12 02:20:08;;;;;;;68.03;31.65;;;;;;;-0.12;100.00;99844.88;4997238;28;20053;-71
2022/12/12 02:23:05;;;;;;;66.43;31.92;;;;;;;0.18;100.00;99870.50;5003483;28;20141;-70
2022/12/12 02:26:16;;;;;;;69.00;31.23;;;;;;;0.23;100.00;99873.91;5000205;28;20054;-70
2022/12/12 02:29:03;;;;;;;;;;;;;;;0.21;100.00;99875.69;4988418;28;20052;-71
2022/12/12 02:31:43;;;;;;;66.57;29.65;;;;;;;0.08;100.00;99868.06;5004188;28;19921;-70
2022/12/12 02:34:32;;;;;;;68.50;31.45;;;;;;;0.15;100.00;99875.78;5004164;28;20407;-71
2022/12/12 02:37:06;;;;;;;70.65;34.03;;;;;;;0.07;100.00;99866.31;4993340;28;20144;-73
2022/12/12 02:39:44;;;;;;;76.55;34.20;;;;;;;0.03;100.00;99872.44;4991154;28;20154;-71
2022/12/12 02:42:29;;;;;;;76.43;33.63;;;;;;;-0.05;100.00;99872.56;4997750;28;20050;-72
2022/12/12 02:45:11;;;;;;;75.85;34.33;;;;;;;-0.09;100.00;99881.28;4998090;28;20041;-71
2022/12/12 02:47:47;;;;;;;72.07;33.47;;;;;;;-0.15;100.00;99876.13;5004067;28;20068;-73
2022/12/12 02:50:20;;;;;;;76.28;33.97;;;;;;;-0.20;100.00;99877.94;5001909;28;20046;-72
2022/12/12 02:52:47;;;;;;;73.97;32.38;;;;;;;-0.30;100.00;99874.56;5005491;28;20512;-71
2022/12/12 02:55:14;;;;;;;74.32;32.33;;;;;;;-0.30;100.00;99881.50;4998839;28;20060;-70
2022/12/12 02:57:41;;;;;;;80.20;34.92;;;;;;;-0.45;100.00;99857.41;4995089;28;20188;-70
2022/12/12 03:00:18;;;;;;;77.97;33.50;;;;;;;-0.34;100.00;99877.25;4999296;28;20056;-71
2022/12/12 03:09:22;;;;;;;67.78;31.65;;;;;;;-0.08;100.00;99885.59;4993574;28;20082;-71
2022/12/12 03:12:05;;;;;;;74.25;32.70;;;;;;;-0.17;100.00;99885.72;5006450;28;20054;-73
2022/12/12 03:15:14;;;;;;;74.47;33.33;;;;;;;-0.22;100.00;99884.91;5011975;28;20042;-70
2022/12/12 03:18:01;;;;;;;71.45;33.15;;;;;;;-0.28;100.00;99891.03;4997461;28;20053;-74
2022/12/12 03:20:37;;;;;;;75.50;32.90;;;;;;;-0.33;100.00;99887.63;4996124;28;20477;-70
2022/12/12 03:23:08;;;;;;;80.03;34.75;;;;;;;-0.45;100.00;99872.16;5002288;28;20041;-70
2022/12/12 03:25:53;;;;;;;70.78;33.70;;;;;;;-0.41;100.00;99882.50;5006918;28;20160;-71
2022/12/12 03:28:24;;;;;;;70.53;32.70;;;;;;;-0.52;100.00;99863.56;4990569;28;20451;-72
2022/12/12 03:30:54;;;;;;;74.78;34.33;;;;;;;-0.40;100.00;99886.84;5000583;28;20069;-71
2022/12/12 03:33:32;;;;;;;71.43;31.63;;;;;;;-0.44;100.00;99884.28;5006827;28;20056;-70
2022/12/12 03:36:09;;;;;;;71.38;32.40;;;;;;;-0.58;100.00;99855.81;5003188;28;20046;-71
2022/12/12 03:38:41;;;;;;;75.63;34.45;;;;;;;-0.34;100.00;99890.25;4999866;28;20072;-72
2022/12/12 03:41:14;;;;;;;79.57;35.17;;;;;;;-0.36;100.00;99883.31;5002682;28;20058;-71
2022/12/12 03:43:51;;;;;;;77.75;35.50;;;;;;;-0.34;100.00;99885.91;5002332;28;20156;-70
2022/12/12 03:46:38;;;;;;;75.45;34.45;;;;;;;-0.50;100.00;99864.41;5008891;28;20569;-70
2022/12/12 03:49:16;;;;;;;66.95;31.17;;;;;;;-0.23;100.00;99884.03;4996409;28;20133;-72
2022/12/12 03:51:50;;;;;;;68.30;33.17;;;;;;;-0.24;100.00;99865.84;5004093;28;20153;-70
2022/12/12 03:54:22;;;;;;;69.95;32.72;;;;;;;-0.10;100.00;99882.16;5000237;28;20550;-70
2022/12/12 03:56:55;;;;;;;70.95;33.25;;;;;;;-0.12;100.00;99887.38;4995010;28;20058;-70
2022/12/12 03:59:34;;;;;;;73.20;34.03;;;;;;;-0.19;100.00;99879.66;4996350;28;20537;-71
2022/12/12 04:02:22;;;;;;;72.70;32.03;;;;;;;-0.19;100.00;99888.34;4997945;28;20073;-71
2022/12/12 04:05:17;;;;;;;73.53;33.35;;;;;;;-0.26;100.00;99885.81;4997471;28;20060;-70
2022/12/12 04:07:48;;;;;;;77.22;34.63;;;;;;;-0.32;100.00;99888.50;4989037;28;21287;-71
2022/12/12 04:13:38;;;;;;;73.63;34.35;;;;;;;-0.28;100.00;99893.63;4997476;28;20064;-70
2022/12/12 04:16:11;;;;;;;71.68;31.27;;;;;;;-0.25;100.00;99890.13;5002074;28;20094;-74
2022/12/12 04:18:51;;;;;;;72.20;32.58;;;;;;;-0.21;100.00;99897.03;4999516;28;20055;-71
2022/12/12 04:24:43;;;;;;;75.22;33.72;;;;;;;-0.12;100.00;99902.13;4998939;28;20054;-74
2022/12/12 04:27:24;;;;;;;67.88;32.63;;;;;;;-0.27;100.00;99881.50;4996396;28;20089;-73
2022/12/12 04:30:04;;;;;;;70.32;33.35;;;;;;;-0.13;100.00;99906.47;4997873;28;20046;-71
2022/12/12 04:32:49;;;;;;;76.75;32.75;;;;;;;-0.13;100.00;99916.00;4996483;28;20047;-71
2022/12/12 04:35:21;;;;;;;68.70;31.80;;;;;;;-0.15;100.00;99910.81;5001066;28;20048;-73
2022/12/12 04:37:52;;;;;;;70.38;33.00;;;;;;;-0.17;100.00;99912.63;4999692;28;20126;-72
2022/12/12 04:40:32;;;;;;;68.72;31.40;;;;;;;-0.16;100.00;99916.06;4992908;28;20718;-71
2022/12/12 04:43:07;;;;;;;68.85;31.88;;;;;;;-0.18;100.00;99917.81;4994199;28;20129;-74
2022/12/12 04:45:39;;;;;;;75.57;33.92;;;;;;;-0.23;100.00;99917.00;4999803;28;20791;-72
2022/12/12 04:48:11;;;;;;;71.85;33.03;;;;;;;-0.27;100.00;99925.72;4995186;28;20050;-70
2022/12/12 04:50:38;;;;;;;75.13;35.10;;;;;;;-0.31;100.00;99922.28;4996951;28;20057;-71
2022/12/12 04:53:13;;;;;;;74.88;34.92;;;;;;;-0.28;100.00;99929.19;4999221;28;20061;-70
2022/12/12 04:55:48;;;;;;;72.63;32.85;;;;;;;-0.30;100.00;99910.13;4999097;28;20045;-71
2022/12/12 04:58:14;;;;;;;75.72;33.65;;;;;;;-0.22;100.00;99921.34;4993952;28;20133;-76
2022/12/12 05:00:51;;;;;;;72.15;33.28;;;;;;;-0.23;100.00;99928.28;4993964;28;20042;-71
2022/12/12 05:03:34;;;;;;;72.45;33.00;;;;;;;-0.26;100.00;99930.03;4994519;28;20046;-72
2022/12/12 05:06:06;;;;;;;64.78;31.15;;;;;;;-0.31;100.00;99921.41;5004302;28;20461;-71
2022/12/12 05:08:42;;;;;;;70.38;32.38;;;;;;;-0.28;100.00;99922.25;4992764;28;20503;-72
2022/12/12 05:11:10;;;;;;;80.18;33.45;;;;;;;-0.27;100.00;99929.19;4989438;28;20149;-72
2022/12/12 05:13:41;;;;;;;75.57;34.17;;;;;;;-0.46;100.00;99899.88;4996635;28;20409;-72
2022/12/12 05:16:17;;;;;;;75.05;33.67;;;;;;;-0.43;100.00;99912.00;5001662;28;20141;-70
2022/12/12 05:18:44;;;;;;;72.57;33.42;;;;;;;-0.46;100.00;99905.09;4996667;28;20052;-72
2022/12/12 05:21:11;;;;;;;72.38;33.42;;;;;;;-0.38;100.00;99921.50;4995882;28;20042;-71
2022/12/12 05:23:38;;;;;;;70.88;33.88;;;;;;;-0.40;100.00;99917.19;4998535;28;20138;-71
2022/12/12 05:26:07;;;;;;;74.35;33.83;;;;;;;-0.26;100.00;99930.03;4998901;28;20129;-71
2022/12/12 05:28:36;;;;;;;69.07;31.77;;;;;;;-0.25;100.00;99929.16;4999881;28;20046;-70
2022/12/12 05:31:02;;;;;;;68.03;33.38;;;;;;;-0.20;100.00;99938.66;4997341;28;20513;-72
2022/12/12 05:33:29;;;;;;;72.28;33.50;;;;;;;-0.20;100.00;99936.06;5001110;28;20065;-74
2022/12/12 05:35:56;;;;;;;71.97;33.20;;;;;;;-0.23;100.00;99930.00;4999210;28;20046;-73
2022/12/12 05:38:22;;;;;;;71.15;32.28;;;;;;;-0.21;100.00;99930.88;4998938;28;20486;-70
2022/12/12 05:40:49;;;;;;;73.68;34.50;;;;;;;-0.18;100.00;99931.69;4995764;28;20049;-72
2022/12/12 05:43:16;;;;;;;74.25;32.28;;;;;;;-0.13;100.00;99936.84;4999742;28;20260;-70
2022/12/12 05:45:42;;;;;;;72.40;32.63;;;;;;;-0.13;100.00;99937.69;5001972;28;20132;-71
2022/12/12 05:48:09;;;;;;;80.50;34.47;;;;;;;-0.16;100.00;99935.13;4998350;28;20065;-71
2022/12/12 05:50:35;;;;;;;73.25;34.63;;;;;;;-0.18;100.00;99938.66;4995333;28;20046;-71
2022/12/12 05:53:02;;;;;;;76.32;34.85;;;;;;;-0.45;100.00;99899.00;5002618;28;20549;-70
2022/12/12 05:55:28;;;;;;;79.15;35.15;;;;;;;-0.30;100.00;99936.16;5004136;28;20751;-71
2022/12/12 05:57:55;;;;;;;78.47;35.97;;;;;;;-0.31;100.00;99937.88;5000600;28;20125;-71
2022/12/12 06:00:22;;;;;;;75.00;34.35;;;;;;;-0.46;100.00;99922.44;4996981;28;20060;-72
2022/12/12 06:02:48;;;;;;;72.18;34.13;;;;;;;-0.29;100.00;99940.47;5000749;28;20132;-70
2022/12/12 06:05:15;;;;;;;79.45;36.22;;;;;;;-0.26;100.00;99950.84;5001062;28;20786;-70
2022/12/12 06:07:42;;;;;;;74.60;35.10;;;;;;;-0.26;100.00;99946.50;5001143;28;20061;-72
2022/12/12 06:10:08;;;;;;;78.28;35.72;;;;;;;-0.27;100.00;99941.31;4997143;28;20180;-70
2022/12/12 06:12:35;;;;;;;74.70;34.80;;;;;;;-0.37;100.00;99927.56;4999488;28;20511;-73
2022/12/12 06:15:02;;;;;;;76.22;35.78;;;;;;;-0.26;100.00;99959.53;5003875;28;20076;-71
2022/12/12 06:17:28;;;;;;;80.13;34.95;;;;;;;-0.26;100.00;99956.06;5000316;28;20077;-72
2022/12/12 06:19:59;;;;;;;78.07;36.50;;;;;;;-0.31;100.00;99950.03;4990149;28;20688;-72
2022/12/12 06:22:26;;;;;;;81.25;37.10;;;;;;;-0.30;100.00;99957.81;5000946;28;20048;-71
2022/12/12 06:24:52;;;;;;;82.45;36.40;;;;;;;-0.32;100.00;99958.75;5005749;28;20041;-72
2022/12/12 06:27:19;;;;;;;78.82;34.90;;;;;;;-0.34;100.00;99958.75;4992882;28;20566;-71
2022/12/12 06:29:45;;;;;;;76.40;34.50;;;;;;;-0.50;100.00;99934.63;4995814;28;20088;-73
2022/12/12 06:32:12;;;;;;;78.32;35.30;;;;;;;-0.32;100.00;99958.75;5003182;28;20088;-71
2022/12/12 06:34:39;;;;;;;80.45;36.72;;;;;;;-0.48;100.00;99932.03;5000912;28;20050;-73
2022/12/12 06:37:06;;;;;;;79.72;36.70;;;;;;;-0.31;100.00;99963.03;5004390;28;20046;-72
2022/12/12 06:39:39;;;;;;;76.57;35.03;;;;;;;-0.31;100.00;99960.44;4997802;28;20447;-71
2022/12/12 06:42:06;;;;;;;80.50;36.72;;;;;;;-0.34;100.00;99966.56;4999594;28;20069;-71
2022/12/12 06:44:32;;;;;;;82.65;36.50;;;;;;;-0.34;100.00;99963.97;5007466;28;20082;-72
2022/12/12 06:46:59;;;;;;;79.78;36.97;;;;;;;-0.33;100.00;99970.03;5006388;28;20509;-73
2022/12/12 06:49:27;;;;;;;83.70;36.88;;;;;;;-0.46;100.00;99945.84;4996853;28;20120;-74
2022/12/12 06:51:53;;;;;;;83.70;38.17;;;;;;;-0.33;100.00;99973.50;4998119;28;20077;-71
2022/12/12 06:54:20;;;;;;;85.03;36.78;;;;;;;-0.31;100.00;99973.44;5003734;28;20905;-73
2022/12/12 06:56:47;;;;;;;75.43;36.85;;;;;;;-0.25;100.00;99973.41;5003525;28;20074;-72
2022/12/12 06:59:15;;;;;;;85.20;38.03;;;;;;;-0.23;100.00;99977.72;5005113;28;20082;-72
2022/12/12 07:01:42;;;;;;;86.55;37.30;;;;;;;-0.23;100.00;99976.84;5004903;28;20232;-71
2022/12/12 07:04:10;;;;;;;86.50;37.90;;;;;;;-0.31;100.00;99979.50;5008055;28;20410;-71
2022/12/12 07:06:37;;;;;;;86.07;37.75;;;;;;;-0.27;100.00;99980.34;5005861;28;20050;-71
2022/12/12 07:09:04;;;;;;;82.93;36.45;;;;;;;-0.34;100.00;99973.50;5000133;28;20419;-72
2022/12/12 07:11:31;;;;;;;82.90;36.78;;;;;;;-0.25;100.00;99989.88;4996981;28;20100;-74
2022/12/12 07:13:58;;;;;;;82.53;36.67;;;;;;;-0.25;100.00;99989.00;4994213;28;20104;-71
2022/12/12 07:16:25;;;;;;;82.45;36.13;;;;;;;-0.43;100.00;99964.03;4998777;28;20046;-71
2022/12/12 07:18:52;;;;;;;78.95;35.08;;;;;;;-0.22;100.00;99999.41;5013279;28;20050;-72
2022/12/12 07:21:19;;;;;;;77.63;35.85;;;;;;;-0.22;100.00;99999.41;5015687;28;20613;-72
2022/12/12 07:23:47;;;;;;;77.60;35.05;;;;;;;-0.22;100.00;99999.41;5007112;28;20052;-71
2022/12/12 07:26:21;;;;;;;75.65;34.15;;;;;;;-0.25;100.00;100004.63;4995118;28;20061;-73
2022/12/12 07:28:49;;;;;;;79.32;36.00;;;;;;;-0.38;100.00;99980.47;5001194;28;20052;-72
2022/12/12 07:31:18;;;;;;;89.82;37.80;;;;;;;-0.22;100.00;100009.81;5001904;28;20053;-73
2022/12/12 07:33:45;;;;;;;84.53;38.85;;;;;;;-0.22;100.00;100010.66;4999002;28;20050;-73
2022/12/12 07:36:13;;;;;;;79.05;37.97;;;;;;;-0.22;100.00;100009.81;4996356;28;20661;-72
2022/12/12 07:38:40;;;;;;;82.93;37.78;;;;;;;-0.23;100.00;100006.34;5008940;28;20061;-72
2022/12/12 07:41:09;;;;;;;85.57;37.65;;;;;;;-0.22;100.00;99999.41;5004719;28;20056;-72
2022/12/12 07:43:37;;;;;;;80.03;35.20;;;;;;;-0.24;100.00;100008.94;5004791;28;20049;-70
2022/12/12 07:46:11;;;;;;;79.20;35.25;;;;;;;-0.25;100.00;100015.03;5000882;28;20051;-70
2022/12/12 07:48:38;;;;;;;80.22;36.60;;;;;;;-0.26;100.00;100021.09;5003583;28;20049;-71
2022/12/12 07:51:05;;;;;;;81.78;37.60;;;;;;;-0.49;100.00;99985.78;5003454;28;20058;-70
2022/12/12 07:53:32;;;;;;;79.78;37.00;;;;;;;-0.26;100.00;100013.31;5007597;28;20060;-73
2022/12/12 07:55:58;;;;;;;82.40;37.20;;;;;;;-0.28;100.00;100004.66;4993426;28;20041;-70
2022/12/12 07:58:25;;;;;;;80.88;37.90;;;;;;;-0.34;100.00;99984.78;5002686;28;20050;-72
2022/12/12 08:00:54;;;;;;;77.72;37.72;;;;;;;-0.12;100.00;100024.44;4999857;28;20491;-72
2022/12/12 08:03:21;;;;;;;83.50;38.22;;;;;;;-0.13;100.00;100020.09;4999786;28;20076;-73
2022/12/12 08:05:48;;;;;;;75.10;36.47;;;;;;;-0.15;100.00;100021.88;4992217;28;20049;-72
2022/12/12 08:08:14;;;;;;;74.53;35.85;;;;;;;-0.09;100.00;100022.69;5002106;28;20049;-72
2022/12/12 08:10:41;;;;;;;76.90;35.70;;;;;;;-0.06;100.00;100027.00;5014088;28;20909;-72
2022/12/12 08:13:07;;;;;;;73.13;35.25;;;;;;;-0.04;100.00;100030.44;4992285;28;20068;-74
2022/12/12 08:15:34;;;;;;;72.95;34.58;;;;;;;-0.05;100.00;100034.78;4991601;28;20045;-72
2022/12/12 08:18:00;;;;;;;79.90;38.70;;;;;;;0.03;100.00;100039.91;5013359;28;20053;-72
2022/12/12 08:20:27;;;;;;;79.40;37.17;;;;;;;0.02;100.00;100042.53;5001553;28;20392;-71
2022/12/12 08:22:53;;;;;;;75.60;35.10;;;;;;;0.05;100.00;100045.97;5002956;28;20042;-72
2022/12/12 08:25:20;;;;;;;75.25;36.03;;;;;;;0.05;100.00;100035.56;4995240;28;20050;-73
2022/12/12 08:27:47;;;;;;;74.47;35.28;;;;;;;-0.09;100.00;100011.41;5003336;28;20081;-72
2022/12/12 08:30:13;;;;;;;77.13;36.95;;;;;;;0.11;100.00;100045.91;4998626;28;20046;-71
2022/12/12 08:32:40;;;;;;;76.68;36.15;;;;;;;0.12;100.00;100051.97;5007391;28;20479;-71
2022/12/12 08:35:07;;;;;;;68.22;33.05;;;;;;;0.09;100.00;100050.28;4997330;28;20044;-71
2022/12/12 08:37:34;;;;;;;67.35;31.35;;;;;;;-0.14;100.00;100024.44;5003477;28;20057;-73
2022/12/12 08:40:00;;;;;;;71.05;31.90;;;;;;;-0.01;100.00;100054.72;5000183;28;20081;-71
2022/12/12 08:42:27;;;;;;;82.32;38.65;;;;;;;-0.02;100.00;100062.53;5003706;28;20053;-70
2022/12/12 08:44:53;;;;;;;86.22;38.25;;;;;;;-0.09;100.00;100048.69;4998501;28;20054;-73
2022/12/12 08:47:20;;;;;;;88.15;39.38;;;;;;;-0.07;100.00;100057.38;5003918;28;20062;-72
2022/12/12 08:49:47;;;;;;;82.70;38.70;;;;;;;-0.07;100.00;100064.31;5009100;28;20073;-72
2022/12/12 08:52:13;;;;;;;87.75;40.13;;;;;;;-0.27;100.00;100028.06;5003609;28;20502;-73
2022/12/12 08:54:40;;;;;;;90.03;40.22;;;;;;;-0.26;100.00;100034.97;4994002;28;20065;-73
2022/12/12 08:57:06;;;;;;;93.45;40.20;;;;;;;-0.22;100.00;100035.81;4994714;28;20084;-73
2022/12/12 08:59:33;;;;;;;88.20;41.17;;;;;;;-0.09;100.00;100042.63;4995262;28;20058;-73
2022/12/12 09:02:00;;;;;;;84.38;38.90;;;;;;;0.13;100.00;100064.13;5001619;28;20406;-70
2022/12/12 09:04:27;;;;;;;79.72;38.40;;;;;;;0.01;100.00;100039.06;4986307;28;20042;-72
2022/12/12 09:06:53;;;;;;;82.32;37.83;;;;;;;0.15;100.00;100068.44;5000936;28;20053;-72
2022/12/12 09:09:20;;;;;;;86.82;38.92;;;;;;;0.12;100.00;100070.22;4999039;28;20059;-72
2022/12/12 09:11:47;;;;;;;79.88;37.92;;;;;;;0.09;100.00;100071.09;5002702;28;20057;-71
2022/12/12 09:14:13;;;;;;;79.72;37.58;;;;;;;0.09;100.00;100071.09;4998962;28;20554;-70
2022/12/12 09:16:40;;;;;;;85.80;39.85;;;;;;;0.04;100.00;100075.47;4996863;28;20446;-70
2022/12/12 09:19:06;;;;;;;91.22;40.78;;;;;;;-0.01;100.00;100074.69;4999889;28;20466;-74
2022/12/12 09:21:33;;;;;;;93.32;44.70;;;;;;;-0.05;100.00;100075.56;5000832;28;20065;-75
2022/12/12 09:24:00;;;;;;;82.78;40.33;;;;;;;-0.02;100.00;100084.22;5002277;28;20056;-71
2022/12/12 09:26:27;;;;;;;88.93;39.53;;;;;;;-0.04;100.00;100085.97;4990063;28;20054;-70
2022/12/12 09:28:54;;;;;;;87.60;37.28;;;;;;;-0.11;100.00;100073.00;4998141;28;20148;-73
2022/12/12 09:31:20;;;;;;;91.38;38.55;;;;;;;-0.05;100.00;100078.19;4994560;28;20053;-73
2022/12/12 09:33:47;;;;;;;81.30;38.85;;;;;;;-0.15;100.00;100068.69;5000360;28;20587;-71
2022/12/12 09:36:14;;;;;;;84.50;40.35;;;;;;;-0.08;100.00;100079.06;4990678;28;20058;-73
2022/12/12 09:38:41;;;;;;;90.25;40.50;;;;;;;-0.06;100.00;100092.06;4995887;28;20060;-70
2022/12/12 09:41:08;;;;;;;86.78;40.30;;;;;;;-0.03;100.00;100092.91;5003767;28;20479;-72
2022/12/12 09:44:06;;;;;;;83.93;37.92;;;;;;;-0.04;100.00;100095.53;4997067;28;20042;-74
2022/12/12 09:46:41;;;;;;;77.50;35.80;;;;;;;-0.03;100.00;100094.66;4979344;28;20443;-71
2022/12/12 09:49:21;;;;;;;78.20;35.53;;;;;;;0.01;100.00;100101.53;4998236;28;20042;-71
2022/12/12 09:51:50;;;;;;;86.97;37.75;;;;;;;0.06;100.00;100104.09;4988374;28;20054;-72
2022/12/12 09:54:20;;;;;;;81.50;35.97;;;;;;;0.05;100.00;100095.44;4990943;28;20056;-71
2022/12/12 09:57:09;;;;;;;74.37;35.60;;;;;;;0.07;100.00;100091.06;4988429;28;20727;-70
2022/12/12 10:00:00;;;;;;;75.90;35.53;;;;;;;0.12;100.00;100104.91;4997806;28;21081;-71
2022/12/12 10:02:52;;;;;;;81.60;35.92;;;;;;;-0.04;100.00;100078.16;4994781;28;20104;-71
2022/12/12 10:05:45;;;;;;;90.45;38.55;;;;;;;0.20;100.00;100097.03;4996454;28;20479;-71
2022/12/12 10:08:30;;;;;;;84.63;39.47;;;;;;;0.30;100.00;100094.31;4999509;28;20544;-72
2022/12/12 10:11:05;;;;;;;90.22;40.72;;;;;;;0.29;100.00;100076.09;5001397;28;20065;-72
2022/12/12 10:13:34;;;;;;;84.25;39.55;;;;;;;0.47;100.00;100088.06;5001113;28;20071;-72
2022/12/12 10:16:08;;;;;;;88.65;41.47;;;;;;;0.49;100.00;100086.28;4994015;28;20105;-73
2022/12/12 10:18:40;;;;;;;84.97;40.38;;;;;;;0.55;100.00;100088.84;5002311;28;20046;-74
2022/12/12 10:21:16;;;;;;;87.35;40.05;;;;;;;0.54;100.00;100082.75;4993849;28;20085;-73
2022/12/12 10:23:46;;;;;;;82.75;39.20;;;;;;;0.64;100.00;100093.94;4995809;28;20050;-71
2022/12/12 10:26:20;;;;;;;81.95;38.17;;;;;;;0.67;100.00;100084.34;4992651;28;20490;-70
2022/12/12 10:28:54;;;;;;;84.80;40.50;;;;;;;0.52;100.00;100061.06;4993386;28;20056;-72
2022/12/12 10:31:42;;;;;;;84.10;38.83;;;;;;;0.72;100.00;100086.03;4999443;28;20237;-74
2022/12/12 10:34:46;;;;;;;86.00;39.88;;;;;;;0.54;100.00;100061.94;4997716;28;20065;-72
2022/12/12 10:37:33;;;;;;;84.50;39.67;;;;;;;0.77;100.00;100087.72;4993922;28;20048;-71
2022/12/12 10:40:13;;;;;;;78.75;37.60;;;;;;;0.78;100.00;100080.75;4995144;28;20395;-72
2022/12/12 10:42:51;;;;;;;82.30;39.53;;;;;;;0.78;100.00;100086.84;4997363;28;20482;-71
2022/12/12 10:45:47;;;;;;;89.63;40.78;;;;;;;0.80;100.00;100087.66;5000529;28;20078;-72
2022/12/12 10:48:13;;;;;;;80.95;38.35;;;;;;;0.70;100.00;100073.03;5004650;28;20062;-72
2022/12/12 10:51:11;;;;;;;77.40;36.08;;;;;;;0.70;100.00;100088.66;4993674;28;20046;-74
2022/12/12 10:53:40;;;;;;;79.45;37.47;;;;;;;0.68;100.00;100093.88;4992732;28;20053;-73
2022/12/12 10:56:23;;;;;;;80.35;38.10;;;;;;;0.68;100.00;100087.81;4996418;28;20038;-72
2022/12/12 10:58:56;;;;;;;75.97;36.97;;;;;;;0.59;100.00;100059.28;5005482;28;20056;-70
2022/12/12 11:01:34;;;;;;;74.15;36.13;;;;;;;0.80;100.00;100089.41;5001027;28;20050;-74
2022/12/12 11:04:23;;;;;;;71.55;36.10;;;;;;;0.77;100.00;100082.50;5004996;28;20057;-71
2022/12/12 11:06:52;;;;;;;71.65;36.35;;;;;;;0.70;100.00;100091.25;4991516;28;20050;-71
2022/12/12 11:09:27;;;;;;;77.63;37.38;;;;;;;0.65;100.00;100093.06;4998066;28;20503;-73
2022/12/12 11:11:59;;;;;;;80.90;38.35;;;;;;;0.63;100.00;100090.47;4995941;28;20554;-75
2022/12/12 11:14:33;;;;;;;78.35;37.75;;;;;;;0.55;100.00;100084.50;5006739;28;20088;-72
2022/12/12 11:17:00;;;;;;;76.47;36.42;;;;;;;0.50;100.00;100075.00;4991710;28;20054;-71
2022/12/12 11:19:36;;;;;;;77.22;37.58;;;;;;;0.48;100.00;100080.22;4995129;28;20046;-73
2022/12/12 11:22:03;;;;;;;71.65;35.25;;;;;;;0.42;100.00;100079.44;4995291;28;20096;-72
2022/12/12 11:24:32;;;;;;;74.53;34.90;;;;;;;0.38;100.00;100080.34;5003305;28;20057;-72
2022/12/12 11:27:04;;;;;;;72.40;35.20;;;;;;;0.35;100.00;100084.69;4990094;28;20046;-72
2022/12/12 11:29:39;;;;;;;74.07;33.63;;;;;;;0.37;100.00;100082.09;4994446;28;20046;-74
2022/12/12 11:32:16;;;;;;;72.78;34.05;;;;;;;0.22;100.00;100048.41;4994911;28;20050;-71
2022/12/12 11:34:48;;;;;;;72.05;35.85;;;;;;;0.46;100.00;100075.94;4993111;28;20045;-74
2022/12/12 11:37:25;;;;;;;76.35;37.08;;;;;;;0.26;100.00;100053.56;4983969;28;20042;-73
2022/12/12 11:39:55;;;;;;;73.20;37.15;;;;;;;0.35;100.00;100079.50;4995575;28;20631;-72
2022/12/12 11:42:30;;;;;;;76.18;37.00;;;;;;;0.31;100.00;100075.22;4985073;28;20050;-72